createdAt,value
2022-12-23T00:01:36.050Z,101125.03
2022-12-23T00:06:32.766Z,101123.28
2022-12-23T00:11:30.925Z,101126.72
2022-12-23T00:16:27.565Z,101133.56
2022-12-23T00:21:24.792Z,101114.59
2022-12-23T00:26:22.517Z,101125.78
2022-12-23T00:31:20.522Z,101125.88
2022-12-23T00:36:18.377Z,101123.28
2022-12-23T00:41:37.062Z,101121.38
2022-12-23T00:46:33.664Z,101106.78
2022-12-23T00:51:30.315Z,101097.38
2022-12-23T00:56:31.172Z,101080.19
2022-12-23T01:01:49.617Z,101092.31
2022-12-23T01:06:47.606Z,101082.81
2022-12-23T01:11:45.969Z,101074.22
2022-12-23T01:16:42.591Z,101074.16
2022-12-23T01:21:40.070Z,101057.75
2022-12-23T01:26:36.675Z,101065.50
2022-12-23T01:31:33.954Z,101058.50
2022-12-23T01:36:33.568Z,101043.78
2022-12-23T01:41:48.867Z,101070.59
2022-12-23T01:46:46.228Z,101060.28
2022-12-23T01:51:43.955Z,101059.41
2022-12-23T01:56:40.962Z,101068.97
2022-12-23T02:01:56.001Z,101055.97
2022-12-23T02:07:14.144Z,101053.44
2022-12-23T02:12:32.067Z,101043.16
2022-12-23T02:17:31.525Z,101032.84
2022-12-23T02:22:49.378Z,101035.44
2022-12-23T02:27:57.077Z,101021.66
2022-12-23T02:33:08.560Z,101025.13
2022-12-23T02:38:11.314Z,101025.84
2022-12-23T02:43:18.853Z,101014.66
2022-12-23T02:48:20.688Z,101018.06
2022-12-23T02:53:21.350Z,101004.31
2022-12-23T02:58:22.838Z,101010.38
2022-12-23T03:03:21.617Z,101007.84
2022-12-23T03:08:24.165Z,101001.81
2022-12-23T03:13:24.569Z,101007.66
2022-12-23T03:18:25.930Z,100990.84
2022-12-23T03:23:26.296Z,101006.56
2022-12-23T03:28:27.255Z,101007.53
2022-12-23T03:33:25.834Z,101005.88
2022-12-23T03:38:26.125Z,101005.88
2022-12-23T03:43:27.401Z,101005.91
2022-12-23T03:48:26.954Z,100946.31
2022-12-23T03:53:30.332Z,101007.72
2022-12-23T03:58:31.582Z,101004.25
2022-12-23T04:03:32.111Z,100999.09
2022-12-23T04:08:32.716Z,100994.78
2022-12-23T04:13:30.038Z,100985.34
2022-12-23T04:18:26.705Z,100986.13
2022-12-23T04:23:23.289Z,101003.28
2022-12-23T04:28:20.545Z,100995.59
2022-12-23T04:33:18.914Z,101011.97
2022-12-23T04:38:20.137Z,100995.53
2022-12-23T04:43:19.282Z,100992.97
2022-12-23T04:48:16.581Z,100991.34
2022-12-23T04:53:14.770Z,100993.91
2022-12-23T04:58:11.515Z,101002.25
2022-12-23T05:03:08.204Z,101010.81
2022-12-23T05:08:06.128Z,101014.25
2022-12-23T05:13:04.834Z,101013.44
2022-12-23T05:18:02.822Z,101019.63
2022-12-23T05:22:59.369Z,101024.81
2022-12-23T05:27:56.833Z,101027.19
2022-12-23T05:32:55.510Z,101023.50
2022-12-23T05:37:54.441Z,101036.47
2022-12-23T05:42:50.984Z,101038.38
2022-12-23T05:47:48.347Z,101049.47
2022-12-23T05:52:47.926Z,101045.28
2022-12-23T05:57:45.999Z,101040.09
2022-12-23T06:02:44.389Z,101026.66
2022-12-23T06:07:44.511Z,101020.91
2022-12-23T06:12:41.264Z,101043.06
2022-12-23T06:17:40.573Z,101042.16
2022-12-23T06:22:39.547Z,101050.22
2022-12-23T06:27:36.810Z,101065.75
2022-12-23T06:32:38.347Z,101052.63
2022-12-23T06:37:35.932Z,101057.97
2022-12-23T06:42:32.925Z,101076.94
2022-12-23T06:47:33.462Z,101059.03
2022-12-23T06:52:30.153Z,101046.22
2022-12-23T06:57:29.928Z,101059.41
2022-12-23T07:02:26.735Z,101060.38
2022-12-23T07:07:27.050Z,101069.97
2022-12-23T07:12:25.218Z,101067.44
2022-12-23T07:17:22.440Z,101068.44
2022-12-23T07:22:19.966Z,101077.78
2022-12-23T07:27:20.471Z,101075.38
2022-12-23T07:32:28.582Z,101082.00
2022-12-23T07:37:25.337Z,101082.38
2022-12-23T07:42:44.003Z,101078.84
2022-12-23T07:47:42.051Z,101079.44
2022-12-23T07:52:43.583Z,101082.13
2022-12-23T07:57:44.982Z,101080.47
2022-12-23T08:02:43.776Z,101078.00
2022-12-23T08:07:51.713Z,101072.84
2022-12-23T08:12:59.660Z,101079.72
2022-12-23T08:17:56.402Z,101076.25
2022-12-23T08:22:56.199Z,101070.41
2022-12-23T08:28:41.320Z,101073.88
2022-12-23T08:33:29.113Z,101072.97
2022-12-23T08:38:27.151Z,101066.97
2022-12-23T08:43:26.683Z,101054.06
2022-12-23T08:48:30.473Z,101051.59
2022-12-23T08:53:28.571Z,101041.31
2022-12-23T08:58:25.860Z,101049.84
2022-12-23T09:03:22.848Z,101034.31
2022-12-23T09:08:22.426Z,101049.00
2022-12-23T09:13:30.825Z,101031.94
2022-12-23T09:18:30.684Z,101044.06
2022-12-23T09:23:31.977Z,101031.97
2022-12-23T09:28:28.786Z,101029.38
2022-12-23T09:33:25.903Z,101030.25
2022-12-23T09:38:26.357Z,101029.47
2022-12-23T09:43:29.614Z,101032.06
2022-12-23T09:48:30.329Z,101026.03
2022-12-23T09:53:33.255Z,101021.75
2022-12-23T09:58:31.855Z,101017.47
2022-12-23T10:03:34.141Z,101022.69
2022-12-23T10:08:35.609Z,101015.81
2022-12-23T10:13:40.825Z,101012.38
2022-12-23T10:18:44.995Z,101007.19
2022-12-23T10:23:44.212Z,100996.81
2022-12-23T10:28:47.224Z,101000.28
2022-12-23T10:33:48.521Z,100999.41
2022-12-23T10:38:49.732Z,100996.81
2022-12-23T10:43:55.302Z,100987.28
2022-12-23T10:48:57.988Z,100992.44
2022-12-23T10:53:57.469Z,100990.69
2022-12-23T10:58:55.292Z,100988.06
2022-12-23T11:03:55.516Z,100977.66
2022-12-23T11:08:52.329Z,100983.63
2022-12-23T11:13:50.464Z,100982.81
2022-12-23T11:18:55.021Z,100975.84
2022-12-23T11:24:09.612Z,100974.06
2022-12-23T11:29:09.835Z,100968.03
2022-12-23T11:34:13.817Z,100965.34
2022-12-23T11:39:21.300Z,100956.59
2022-12-23T11:44:31.310Z,100955.81
2022-12-23T11:49:31.592Z,100959.22
2022-12-23T11:54:30.643Z,100955.72
2022-12-23T11:59:31.992Z,100950.31
2022-12-23T12:04:34.595Z,100947.63
2022-12-23T12:09:34.779Z,100940.59
2022-12-23T12:14:40.777Z,100944.06
2022-12-23T12:19:41.254Z,100950.06
2022-12-23T12:24:41.635Z,100951.63
2022-12-23T12:29:45.164Z,100950.72
2022-12-23T12:34:50.912Z,100956.91
2022-12-23T12:39:50.592Z,100963.81
2022-12-23T12:44:56.090Z,100969.06
2022-12-23T12:49:56.801Z,100965.59
2022-12-23T12:54:59.372Z,100970.75
2022-12-23T13:00:05.237Z,100969.88
2022-12-23T13:05:19.473Z,100977.63
2022-12-23T13:10:21.962Z,100973.34
2022-12-23T13:15:27.428Z,100967.28
2022-12-23T13:20:28.927Z,100971.63
2022-12-23T13:25:29.435Z,100974.94
2022-12-23T13:30:28.228Z,100974.13
2022-12-23T13:35:34.117Z,100976.72
2022-12-23T13:40:38.080Z,100976.81
2022-12-23T13:45:39.844Z,100973.38
2022-12-23T13:50:38.615Z,100974.34
2022-12-23T13:55:48.254Z,100975.13
2022-12-23T14:00:56.724Z,100970.84
2022-12-23T14:05:53.840Z,100973.47
2022-12-23T14:10:51.874Z,100977.03
2022-12-23T14:15:58.035Z,100968.16
2022-12-23T14:20:59.365Z,100968.25
2022-12-23T14:26:00.632Z,100976.94
2022-12-23T14:30:59.424Z,100974.34
2022-12-23T14:35:57.464Z,100973.53
2022-12-23T14:40:58.829Z,100973.47
2022-12-23T14:45:56.210Z,100976.94
2022-12-23T14:50:57.499Z,100984.84
2022-12-23T14:56:21.313Z,100989.13
2022-12-23T15:01:25.968Z,100989.13
2022-12-23T15:06:29.001Z,100992.59
2022-12-23T15:11:30.264Z,100997.78
2022-12-23T15:16:30.513Z,101000.34
2022-12-23T15:21:30.030Z,100997.88
2022-12-23T15:26:27.798Z,100997.91
2022-12-23T15:31:26.813Z,100993.50
2022-12-23T15:36:27.888Z,101002.09
2022-12-23T15:41:25.174Z,100977.03
2022-12-23T15:46:29.764Z,101002.03
2022-12-23T15:56:50.618Z,101015.06
2022-12-23T16:01:47.341Z,101013.28
2022-12-23T16:06:48.864Z,101013.31
2022-12-23T16:11:51.690Z,101012.50
2022-12-23T16:16:51.962Z,101014.22
2022-12-23T16:21:49.828Z,100991.84
2022-12-23T16:26:46.425Z,101023.00
2022-12-23T16:32:06.470Z,101016.84
2022-12-23T16:37:03.190Z,101024.63
2022-12-23T16:41:59.897Z,101035.06
2022-12-23T16:47:04.267Z,101036.72
2022-12-23T16:52:01.128Z,101035.84
2022-12-23T16:56:58.013Z,101025.53
2022-12-23T17:02:03.479Z,101036.78
2022-12-23T17:07:02.203Z,101032.59
2022-12-23T17:11:58.901Z,101032.56
2022-12-23T17:16:57.998Z,101031.72
2022-12-23T17:21:58.144Z,101018.66
2022-12-23T17:27:03.106Z,101034.31
2022-12-23T17:32:03.186Z,101020.50
2022-12-23T17:37:01.476Z,101017.06
2022-12-23T17:41:58.123Z,101031.72
2022-12-23T17:46:54.733Z,101027.44
2022-12-23T17:51:53.242Z,101025.69
2022-12-23T17:56:50.731Z,101023.06
2022-12-23T18:01:56.092Z,101018.84
2022-12-23T18:06:55.604Z,101022.34
2022-12-23T18:11:56.370Z,101030.97
2022-12-23T18:16:56.009Z,101037.94
2022-12-23T18:21:55.879Z,101044.84
2022-12-23T18:26:56.088Z,101053.50
2022-12-23T18:31:55.471Z,101050.03
2022-12-23T18:37:37.409Z,101056.13
2022-12-23T18:42:38.838Z,101055.19
2022-12-23T18:47:35.712Z,101055.16
2022-12-23T18:52:32.493Z,101056.97
2022-12-23T18:57:35.090Z,101057.00
2022-12-23T19:02:32.646Z,101044.81
2022-12-23T19:07:29.597Z,101052.75
2022-12-23T19:12:26.761Z,101043.13
2022-12-23T19:17:26.265Z,101047.53
2022-12-23T19:22:26.915Z,101019.94
2022-12-23T19:27:25.716Z,101029.19
2022-12-23T19:32:22.863Z,101022.25
2022-12-23T19:37:21.897Z,101039.66
2022-12-23T19:42:20.091Z,101043.19
2022-12-23T19:47:19.378Z,101028.44
2022-12-23T19:52:16.163Z,101012.75
2022-12-23T19:57:12.918Z,101011.03
2022-12-23T20:02:15.624Z,101004.00
2022-12-23T20:07:14.926Z,101004.91
2022-12-23T20:12:11.654Z,101011.13
2022-12-23T20:17:08.696Z,101001.59
2022-12-23T20:22:15.018Z,101021.53
2022-12-23T20:27:14.827Z,101010.31
2022-12-23T20:32:12.714Z,101017.28
2022-12-23T20:37:11.157Z,101017.22
2022-12-23T20:42:13.128Z,101013.63
2022-12-23T20:47:09.899Z,101017.19
2022-12-23T20:52:06.517Z,101014.53
2022-12-23T20:57:04.946Z,101001.75
2022-12-23T21:02:01.794Z,101023.31
2022-12-23T21:06:58.377Z,101009.28
2022-12-23T21:11:55.051Z,101009.28
2022-12-23T21:16:55.354Z,101001.44
2022-12-23T21:21:53.748Z,101008.38
2022-12-23T21:26:56.304Z,101000.69
2022-12-23T21:31:55.882Z,100966.88
2022-12-23T21:36:59.972Z,100983.50
2022-12-23T21:42:00.150Z,100992.13
2022-12-23T21:46:58.928Z,100987.81
2022-12-23T21:52:01.106Z,100992.25
2022-12-23T21:57:00.692Z,100998.34
2022-12-23T22:02:05.700Z,100986.19
2022-12-23T22:07:04.940Z,100980.75
2022-12-23T22:12:04.519Z,100980.03
2022-12-23T22:17:06.134Z,100974.78
2022-12-23T22:22:02.900Z,100978.22
2022-12-23T22:26:59.567Z,100981.78
2022-12-23T22:31:58.840Z,100977.44
2022-12-23T22:36:55.738Z,100985.28
2022-12-23T22:42:13.482Z,100979.22
2022-12-23T22:47:20.636Z,100990.50
2022-12-23T22:52:19.266Z,100961.97
2022-12-23T22:57:15.834Z,100957.66
2022-12-23T23:02:12.559Z,100972.25
2022-12-23T23:07:09.866Z,100979.06
2022-12-23T23:12:06.518Z,100971.31
2022-12-23T23:17:03.139Z,100963.59
2022-12-23T23:22:00.564Z,100967.66
2022-12-23T23:26:57.876Z,100966.00
2022-12-23T23:31:54.531Z,100961.47
2022-12-23T23:36:51.221Z,100959.78
2022-12-23T23:41:47.912Z,100955.53
2022-12-23T23:46:48.966Z,100957.09
2022-12-23T23:51:45.672Z,100961.44
2022-12-23T23:56:47.983Z,100976.31
